createdAt,value
2022-08-08T00:02:03.676Z,13.36
2022-08-08T00:05:03.330Z,13.30
2022-08-08T00:08:19.912Z,13.25
2022-08-08T00:11:46.770Z,13.19
2022-08-08T00:15:00.646Z,13.16
2022-08-08T00:18:03.190Z,13.14
2022-08-08T00:21:00.961Z,13.10
2022-08-08T00:23:43.098Z,13.10
2022-08-08T00:26:26.271Z,13.10
2022-08-08T00:29:44.986Z,13.16
2022-08-08T00:33:03.932Z,13.21
2022-08-08T00:35:50.939Z,13.23
2022-08-08T00:38:51.559Z,13.25
2022-08-08T00:42:07.817Z,13.21
2022-08-08T00:45:29.368Z,13.19
2022-08-08T00:48:43.653Z,13.18
2022-08-08T00:51:51.738Z,13.18
2022-08-08T00:54:56.406Z,13.13
2022-08-08T00:57:40.442Z,13.17
2022-08-08T01:00:22.246Z,13.17
2022-08-08T01:03:59.071Z,13.18
2022-08-08T01:07:20.776Z,13.21
2022-08-08T01:10:35.322Z,13.13
2022-08-08T01:13:44.476Z,13.06
2022-08-08T01:17:51.640Z,12.97
2022-08-08T01:20:44.301Z,12.79
2022-08-08T01:24:05.460Z,12.71
2022-08-08T01:27:02.864Z,12.71
2022-08-08T01:30:11.109Z,12.69
2022-08-08T01:33:43.040Z,12.72
2022-08-08T01:37:57.214Z,12.70
2022-08-08T01:41:15.946Z,12.65
2022-08-08T01:43:57.286Z,12.62
2022-08-08T01:47:00.651Z,12.59
2022-08-08T01:49:57.510Z,12.52
2022-08-08T01:55:15.791Z,12.47
2022-08-08T01:56:34.392Z,12.53
2022-08-08T02:00:01.776Z,12.61
2022-08-08T02:02:49.925Z,12.68
2022-08-08T02:05:56.529Z,12.64
2022-08-08T02:09:16.303Z,12.57
2022-08-08T02:12:00.387Z,12.61
2022-08-08T02:15:05.003Z,12.55
2022-08-08T02:18:10.506Z,12.50
2022-08-08T02:21:20.147Z,12.51
2022-08-08T02:24:23.720Z,12.50
2022-08-08T02:27:18.417Z,12.46
2022-08-08T02:30:00.505Z,12.40
2022-08-08T02:32:57.928Z,12.38
2022-08-08T02:36:04.978Z,12.39
2022-08-08T02:38:39.998Z,12.39
2022-08-08T02:42:04.206Z,12.39
2022-08-08T02:45:21.257Z,12.43
2022-08-08T02:47:52.129Z,12.34
2022-08-08T02:50:47.214Z,12.26
2022-08-08T02:53:45.543Z,12.25
2022-08-08T02:56:40.820Z,12.27
2022-08-08T02:59:37.537Z,12.26
2022-08-08T03:02:54.376Z,12.23
2022-08-08T03:05:32.815Z,12.23
2022-08-08T03:08:52.403Z,12.26
2022-08-08T03:12:01.850Z,12.32
2022-08-08T03:15:56.875Z,12.37
2022-08-08T03:18:31.306Z,12.40
2022-08-08T03:21:40.792Z,12.42
2022-08-08T03:24:35.882Z,12.42
2022-08-08T03:27:21.806Z,12.40
2022-08-08T03:30:21.596Z,12.39
2022-08-08T03:33:55.766Z,12.40
2022-08-08T03:36:19.642Z,12.43
2022-08-08T03:39:14.136Z,12.39
2022-08-08T03:42:13.285Z,12.39
2022-08-08T03:46:05.287Z,12.45
2022-08-08T03:48:10.043Z,12.42
2022-08-08T03:50:51.755Z,12.34
2022-08-08T03:53:47.447Z,12.31
2022-08-08T04:00:02.994Z,12.46
2022-08-08T04:03:16.045Z,12.55
2022-08-08T04:05:50.007Z,12.57
2022-08-08T04:08:33.798Z,12.59
2022-08-08T04:11:17.620Z,12.66
2022-08-08T04:14:35.723Z,12.76
2022-08-08T04:17:22.311Z,12.86
2022-08-08T04:20:12.812Z,12.95
2022-08-08T04:22:52.879Z,13.10
2022-08-08T04:25:38.312Z,13.27
2022-08-08T04:28:37.174Z,13.41
2022-08-08T04:31:57.382Z,13.52
2022-08-08T04:34:32.384Z,13.64
2022-08-08T04:37:31.807Z,13.75
2022-08-08T04:40:07.918Z,13.90
2022-08-08T04:42:58.065Z,14.05
2022-08-08T04:45:39.274Z,14.20
2022-08-08T04:48:38.642Z,14.35
2022-08-08T04:51:11.880Z,14.50
2022-08-08T04:54:38.294Z,14.65
2022-08-08T04:57:13.575Z,14.80
2022-08-08T04:59:59.796Z,14.96
2022-08-08T05:02:56.815Z,15.13
2022-08-08T05:05:45.485Z,15.30
2022-08-08T05:08:32.879Z,15.45
2022-08-08T05:11:24.153Z,15.57
2022-08-08T05:14:02.248Z,15.70
2022-08-08T05:16:53.504Z,15.80
2022-08-08T05:20:08.856Z,15.93
2022-08-08T05:22:51.677Z,16.08
2022-08-08T05:25:41.196Z,16.18
2022-08-08T05:28:56.625Z,16.27
2022-08-08T05:32:04.356Z,16.38
2022-08-08T05:34:46.752Z,16.49
2022-08-08T05:37:49.053Z,16.59
2022-08-08T05:40:41.205Z,16.68
2022-08-08T05:44:02.311Z,16.71
2022-08-08T05:46:47.664Z,16.76
2022-08-08T05:49:31.670Z,16.79
2022-08-08T05:52:51.403Z,16.85
2022-08-08T05:56:08.274Z,16.93
2022-08-08T05:58:54.217Z,17.00
2022-08-08T06:01:55.750Z,17.11
2022-08-08T06:04:31.424Z,17.25
2022-08-08T06:07:11.518Z,17.34
2022-08-08T06:10:01.340Z,17.46
2022-08-08T06:13:03.941Z,17.57
2022-08-08T06:15:53.705Z,17.66
2022-08-08T06:18:38.102Z,17.76
2022-08-08T06:21:32.427Z,17.81
2022-08-08T06:24:31.157Z,17.82
2022-08-08T06:27:16.416Z,17.87
2022-08-08T06:30:19.703Z,17.93
2022-08-08T06:33:36.880Z,18.02
2022-08-08T06:36:41.872Z,18.16
2022-08-08T06:39:56.105Z,18.27
2022-08-08T06:42:50.014Z,18.38
2022-08-08T06:45:33.843Z,18.47
2022-08-08T06:48:18.892Z,18.54
2022-08-08T06:50:52.022Z,18.62
2022-08-08T06:53:38.858Z,18.68
2022-08-08T06:56:23.497Z,18.71
2022-08-08T06:59:02.623Z,18.73
2022-08-08T07:02:26.506Z,18.80
2022-08-08T07:09:59.260Z,19.13
2022-08-08T07:12:54.897Z,19.27
2022-08-08T07:16:05.286Z,19.44
2022-08-08T07:19:23.840Z,19.58
2022-08-08T07:22:29.386Z,19.74
2022-08-08T07:25:29.446Z,19.81
2022-08-08T07:28:22.459Z,19.92
2022-08-08T07:31:02.571Z,19.98
2022-08-08T07:34:00.518Z,20.04
2022-08-08T07:36:50.307Z,20.04
2022-08-08T07:39:45.538Z,20.11
2022-08-08T07:42:45.200Z,20.16
2022-08-08T07:45:13.620Z,20.29
2022-08-08T07:48:02.969Z,20.37
2022-08-08T07:50:54.104Z,20.34
2022-08-08T07:54:00.896Z,20.31
2022-08-08T07:57:02.359Z,20.35
2022-08-08T08:00:15.902Z,20.50
2022-08-08T08:03:43.850Z,20.60
2022-08-08T08:06:27.129Z,20.71
2022-08-08T08:09:09.926Z,20.75
2022-08-08T08:11:51.995Z,20.69
2022-08-08T08:14:54.319Z,20.63
2022-08-08T08:17:48.623Z,20.72
2022-08-08T08:20:31.313Z,20.79
2022-08-08T08:23:41.226Z,20.98
2022-08-08T08:27:03.616Z,21.16
2022-08-08T08:30:04.198Z,21.30
2022-08-08T08:32:51.361Z,21.33
2022-08-08T08:35:30.084Z,21.36
2022-08-08T08:38:30.930Z,21.24
2022-08-08T08:41:30.971Z,21.20
2022-08-08T08:44:23.724Z,21.16
2022-08-08T08:47:19.404Z,21.18
2022-08-08T08:50:46.382Z,21.27
2022-08-08T08:53:55.509Z,21.42
2022-08-08T08:56:46.855Z,21.79
2022-08-08T08:59:30.623Z,22.15
2022-08-08T09:02:24.037Z,22.38
2022-08-08T09:05:49.108Z,22.48
2022-08-08T09:08:22.119Z,22.40
2022-08-08T09:11:47.383Z,22.40
2022-08-08T09:14:43.117Z,22.56
2022-08-08T09:17:40.830Z,22.63
2022-08-08T09:21:56.797Z,22.53
2022-08-08T09:23:38.181Z,22.26
2022-08-08T09:26:47.185Z,21.96
2022-08-08T09:30:22.020Z,21.64
2022-08-08T09:34:15.364Z,21.57
2022-08-08T09:36:28.082Z,21.65
2022-08-08T09:39:19.373Z,21.67
2022-08-08T09:42:21.012Z,21.59
2022-08-08T09:46:00.912Z,21.74
2022-08-08T09:48:49.968Z,21.83
2022-08-08T09:51:41.482Z,22.04
2022-08-08T09:55:17.184Z,22.63
2022-08-08T10:01:58.318Z,23.76
2022-08-08T10:04:47.328Z,24.21
2022-08-08T10:07:45.146Z,24.61
2022-08-08T10:10:38.866Z,25.16
2022-08-08T10:13:35.395Z,25.44
2022-08-08T10:16:22.455Z,25.45
2022-08-08T10:19:23.698Z,25.62
2022-08-08T10:22:06.197Z,25.57
2022-08-08T10:25:56.902Z,24.91
2022-08-08T10:29:06.594Z,24.17
2022-08-08T10:32:03.077Z,24.33
2022-08-08T10:35:01.048Z,24.88
2022-08-08T10:38:14.442Z,25.27
2022-08-08T10:41:05.471Z,25.60
2022-08-08T10:43:59.905Z,25.39
2022-08-08T10:46:38.938Z,24.80
2022-08-08T10:50:01.223Z,24.72
2022-08-08T10:53:04.732Z,24.44
2022-08-08T10:55:56.736Z,24.60
2022-08-08T10:58:47.387Z,25.00
2022-08-08T11:01:49.371Z,24.89
2022-08-08T11:05:22.974Z,24.95
2022-08-08T11:08:38.865Z,25.06
2022-08-08T11:11:32.005Z,25.04
2022-08-08T11:17:59.876Z,25.12
2022-08-08T11:20:52.351Z,25.09
2022-08-08T11:24:02.915Z,25.18
2022-08-08T11:26:58.148Z,25.79
2022-08-08T11:30:18.825Z,26.26
2022-08-08T11:33:05.004Z,26.45
2022-08-08T11:35:56.258Z,26.47
2022-08-08T11:38:55.216Z,26.44
2022-08-08T11:41:40.529Z,26.74
2022-08-08T11:44:29.467Z,26.98
2022-08-08T11:47:03.545Z,27.22
2022-08-08T11:50:26.102Z,27.54
2022-08-08T11:53:13.916Z,27.16
2022-08-08T11:56:26.604Z,26.70
2022-08-08T11:59:09.979Z,25.99
2022-08-08T12:02:21.267Z,25.63
2022-08-08T12:05:25.420Z,25.19
2022-08-08T12:08:17.726Z,25.14
2022-08-08T12:11:13.838Z,25.74
2022-08-08T12:14:03.494Z,26.45
2022-08-08T12:17:08.486Z,26.75
2022-08-08T12:20:07.336Z,26.52
2022-08-08T12:22:52.647Z,26.47
2022-08-08T12:25:31.097Z,26.95
2022-08-08T12:28:40.024Z,27.10
2022-08-08T12:31:24.807Z,27.43
2022-08-08T12:34:15.350Z,27.34
2022-08-08T12:37:08.494Z,27.16
2022-08-08T12:40:06.933Z,27.51
2022-08-08T12:43:00.006Z,27.93
2022-08-08T12:45:58.700Z,28.37
2022-08-08T12:49:05.330Z,28.72
2022-08-08T12:52:14.360Z,28.48
2022-08-08T12:55:56.653Z,27.88
2022-08-08T12:59:05.844Z,28.07
2022-08-08T13:01:46.872Z,27.66
2022-08-08T13:05:26.236Z,27.46
2022-08-08T13:08:33.392Z,27.28
2022-08-08T13:12:17.962Z,26.75
2022-08-08T13:14:53.314Z,25.97
2022-08-08T13:18:09.407Z,25.59
2022-08-08T13:20:55.781Z,25.49
2022-08-08T13:23:30.855Z,25.15
2022-08-08T13:26:19.444Z,25.01
2022-08-08T13:29:28.849Z,24.77
2022-08-08T13:32:20.883Z,24.59
2022-08-08T13:35:05.084Z,24.57
2022-08-08T13:38:06.594Z,24.33
2022-08-08T13:41:02.962Z,24.24
2022-08-08T13:43:39.690Z,24.14
2022-08-08T13:46:26.336Z,24.14
2022-08-08T13:50:35.640Z,24.74
2022-08-08T13:52:54.999Z,25.50
2022-08-08T13:55:36.389Z,25.87
2022-08-08T13:58:29.151Z,26.29
2022-08-08T14:01:41.656Z,26.80
2022-08-08T14:04:34.350Z,27.57
2022-08-08T14:07:13.631Z,27.82
2022-08-08T14:10:17.425Z,27.92
2022-08-08T14:12:57.611Z,28.13
2022-08-08T14:15:50.280Z,28.07
2022-08-08T14:18:51.890Z,28.02
2022-08-08T14:21:53.798Z,27.74
2022-08-08T14:24:32.635Z,27.74
2022-08-08T14:27:27.220Z,27.53
2022-08-08T14:30:19.021Z,26.82
2022-08-08T14:33:15.369Z,25.83
2022-08-08T14:36:01.207Z,25.14
2022-08-08T14:38:51.822Z,24.76
2022-08-08T14:41:53.328Z,24.59
2022-08-08T14:44:39.434Z,24.42
2022-08-08T14:47:40.032Z,24.32
2022-08-08T14:50:39.031Z,24.19
2022-08-08T14:53:27.269Z,24.06
2022-08-08T14:56:04.510Z,23.89
2022-08-08T14:58:35.893Z,23.81
2022-08-08T15:01:24.444Z,23.72
2022-08-08T15:04:26.851Z,23.48
2022-08-08T15:07:24.191Z,23.43
2022-08-08T15:10:37.596Z,23.43
2022-08-08T15:13:06.321Z,23.38
2022-08-08T15:16:02.036Z,23.40
2022-08-08T15:18:34.576Z,23.39
2022-08-08T15:21:37.985Z,23.23
2022-08-08T15:24:22.520Z,23.03
2022-08-08T15:27:58.450Z,22.97
2022-08-08T15:30:21.081Z,22.94
2022-08-08T15:32:51.250Z,22.99
2022-08-08T15:35:34.958Z,23.08
2022-08-08T15:38:25.039Z,23.14
2022-08-08T15:40:58.815Z,23.24
2022-08-08T15:44:01.158Z,23.28
2022-08-08T15:46:50.831Z,23.27
2022-08-08T15:49:23.285Z,23.21
2022-08-08T15:52:12.734Z,23.14
2022-08-08T15:54:51.729Z,23.04
2022-08-08T15:57:23.073Z,22.99
2022-08-08T16:00:06.538Z,22.94
2022-08-08T16:02:54.423Z,22.93
2022-08-08T16:05:23.945Z,22.99
2022-08-08T16:07:54.615Z,23.10
2022-08-08T16:13:11.972Z,23.21
2022-08-08T16:13:30.948Z,23.32
2022-08-08T16:16:33.943Z,23.38
2022-08-08T16:19:23.510Z,23.44
2022-08-08T16:22:08.136Z,23.50
2022-08-08T16:24:56.787Z,23.52
2022-08-08T16:27:29.454Z,23.49
2022-08-08T16:30:13.273Z,23.42
2022-08-08T16:33:00.407Z,23.37
2022-08-08T16:35:50.040Z,23.32
2022-08-08T16:38:47.539Z,23.24
2022-08-08T16:41:51.214Z,23.17
2022-08-08T16:44:54.288Z,23.09
2022-08-08T16:47:58.441Z,23.00
2022-08-08T16:50:52.838Z,22.87
2022-08-08T16:55:05.578Z,22.81
2022-08-08T16:57:23.626Z,22.66
2022-08-08T17:00:10.509Z,22.54
2022-08-08T17:02:57.182Z,22.49
2022-08-08T17:05:45.060Z,22.43
2022-08-08T17:09:14.986Z,22.39
2022-08-08T17:12:02.879Z,22.29
2022-08-08T17:15:17.260Z,22.19
2022-08-08T17:18:13.425Z,22.11
2022-08-08T17:20:58.744Z,22.07
2022-08-08T17:24:02.037Z,22.01
2022-08-08T17:26:38.936Z,21.95
2022-08-08T17:29:33.393Z,21.90
2022-08-08T17:34:35.054Z,21.87
2022-08-08T17:35:54.662Z,21.78
2022-08-08T17:39:46.056Z,21.71
2022-08-08T17:42:14.863Z,21.63
2022-08-08T17:45:14.174Z,21.57
2022-08-08T17:48:14.894Z,21.48
2022-08-08T17:51:39.472Z,21.40
2022-08-08T17:54:26.000Z,21.33
2022-08-08T17:57:01.370Z,21.25
2022-08-08T17:59:58.944Z,21.20
2022-08-08T18:03:08.537Z,21.14
2022-08-08T18:05:59.963Z,21.10
2022-08-08T18:09:13.193Z,21.07
2022-08-08T18:11:58.467Z,21.04
2022-08-08T18:14:32.679Z,20.98
2022-08-08T18:18:27.383Z,20.91
2022-08-08T18:20:54.907Z,20.82
2022-08-08T18:23:55.561Z,20.77
2022-08-08T18:27:06.322Z,20.74
2022-08-08T18:30:00.140Z,20.68
2022-08-08T18:32:44.888Z,20.61
2022-08-08T18:35:48.682Z,20.53
2022-08-08T18:39:01.925Z,20.45
2022-08-08T18:41:51.200Z,20.37
2022-08-08T18:46:00.639Z,20.32
2022-08-08T18:48:54.374Z,20.28
2022-08-08T18:51:53.856Z,20.27
2022-08-08T18:54:44.031Z,20.26
2022-08-08T18:57:45.389Z,20.24
2022-08-08T19:00:22.516Z,20.21
2022-08-08T19:03:14.177Z,20.19
2022-08-08T19:05:57.747Z,20.14
2022-08-08T19:08:34.375Z,20.11
2022-08-08T19:11:36.477Z,20.07
2022-08-08T19:14:24.320Z,20.05
2022-08-08T19:17:07.255Z,20.00
2022-08-08T19:20:11.789Z,19.97
2022-08-08T19:23:10.359Z,19.95
2022-08-08T19:26:19.933Z,19.92
2022-08-08T19:28:55.291Z,19.87
2022-08-08T19:31:36.019Z,19.83
2022-08-08T19:34:35.715Z,19.82
2022-08-08T19:37:59.875Z,19.78
2022-08-08T19:40:36.673Z,19.73
2022-08-08T19:43:17.231Z,19.73
2022-08-08T19:46:00.656Z,19.70
2022-08-08T19:48:39.873Z,19.69
2022-08-08T19:51:34.198Z,19.68
2022-08-08T19:54:16.576Z,19.65
2022-08-08T19:57:03.947Z,19.62
2022-08-08T19:59:57.790Z,19.63
2022-08-08T20:02:54.693Z,19.62
2022-08-08T20:06:15.938Z,19.60
2022-08-08T20:08:50.058Z,19.58
2022-08-08T20:11:23.683Z,19.60
2022-08-08T20:14:34.810Z,19.62
2022-08-08T20:17:12.950Z,19.62
2022-08-08T20:20:10.467Z,19.63
2022-08-08T20:23:31.592Z,19.65
2022-08-08T20:26:38.134Z,19.65
2022-08-08T20:29:45.724Z,19.65
2022-08-08T20:32:54.841Z,19.64
2022-08-08T20:35:32.853Z,19.63
2022-08-08T20:38:53.843Z,19.62
2022-08-08T20:41:39.247Z,19.59
2022-08-08T20:44:54.641Z,19.58
2022-08-08T20:47:45.506Z,19.56
2022-08-08T20:50:54.556Z,19.51
2022-08-08T20:54:00.726Z,19.46
2022-08-08T20:57:11.766Z,19.43
2022-08-08T21:00:05.554Z,19.39
2022-08-08T21:02:57.743Z,19.35
2022-08-08T21:05:58.756Z,19.28
2022-08-08T21:08:51.246Z,19.21
2022-08-08T21:11:50.506Z,19.16
2022-08-08T21:16:05.880Z,19.14
2022-08-08T21:18:28.062Z,19.13
2022-08-08T21:21:39.707Z,19.12
2022-08-08T21:24:55.179Z,19.10
2022-08-08T21:28:09.722Z,19.05
2022-08-08T21:30:39.538Z,18.99
2022-08-08T21:33:32.485Z,18.97
2022-08-08T21:36:32.474Z,18.98
2022-08-08T21:39:23.009Z,18.97
2022-08-08T21:42:38.054Z,18.97
2022-08-08T21:45:44.191Z,18.97
2022-08-08T21:48:41.258Z,18.95
2022-08-08T21:54:32.113Z,18.94
2022-08-08T21:56:18.245Z,18.94
2022-08-08T21:58:09.684Z,18.92
2022-08-08T22:01:28.178Z,18.89
2022-08-08T22:04:16.421Z,18.85
2022-08-08T22:06:48.740Z,18.84
2022-08-08T22:09:44.373Z,18.82
2022-08-08T22:12:40.258Z,18.80
2022-08-08T22:15:24.961Z,18.78
2022-08-08T22:18:02.874Z,18.74
2022-08-08T22:21:14.459Z,18.72
2022-08-08T22:23:58.308Z,18.70
2022-08-08T22:27:02.416Z,18.67
2022-08-08T22:30:01.161Z,18.65
2022-08-08T22:32:38.474Z,18.62
2022-08-08T22:36:05.452Z,18.61
2022-08-08T22:38:25.651Z,18.59
2022-08-08T22:41:01.231Z,18.58
2022-08-08T22:44:02.037Z,18.57
2022-08-08T22:46:46.789Z,18.54
2022-08-08T22:49:30.835Z,18.50
2022-08-08T22:52:11.120Z,18.45
2022-08-08T22:55:04.231Z,18.42
2022-08-08T22:57:44.161Z,18.41
2022-08-08T23:00:23.796Z,18.39
2022-08-08T23:03:20.373Z,18.38
2022-08-08T23:06:11.358Z,18.35
2022-08-08T23:08:55.509Z,18.34
2022-08-08T23:12:18.375Z,18.34
2022-08-08T23:14:56.087Z,18.32
2022-08-08T23:17:54.025Z,18.29
2022-08-08T23:20:57.335Z,18.28
2022-08-08T23:23:32.367Z,18.29
2022-08-08T23:26:16.485Z,18.29
2022-08-08T23:28:57.209Z,18.29
2022-08-08T23:31:41.763Z,18.27
2022-08-08T23:34:29.380Z,18.26
2022-08-08T23:37:07.908Z,18.24
2022-08-08T23:39:49.549Z,18.22
2022-08-08T23:42:31.353Z,18.21
2022-08-08T23:45:06.932Z,18.19
2022-08-08T23:49:05.329Z,18.16
2022-08-08T23:50:57.216Z,18.15
2022-08-08T23:54:06.265Z,18.17
2022-08-08T23:56:38.460Z,18.19
2022-08-08T23:59:16.783Z,18.22
